DLH34J EDDF-LPPT
Flight info
| Callsign | DLH34J |
|---|---|
| Flight time | N/A |
| Altitude | 37000 |
| Route | SOBRA2L/18 SOBRA Y180 DIK UN857 TOLVU DCT RAPOR DCT GIMER/N0433F350 DCT ESTOC UT300 PON UN872 GODIX/N0411F310 UN872 DIDAK/N0439F370 UN872 TERPO/N0429F350 UN872 ERIGA UZ218 FUJTI/N0438F370 DCT ATLEN DCT ABUPI DCT XAMAX |
| Aircraft | A320/M-SDE2E3FGIJ1LORWXYZ/HB1 |
Departure
| Time | 2026-05-06 18:06 |
|---|---|
| Airport | Frankfurt Main Airport (EDDF) |
Arrival
| Time | N/A |
|---|---|
| Airport | Lisbon Humberto Delgado Airport (LPPT) |
| Time | Latitude | Longitude | Altitude | Speed | Heading |
|---|---|---|---|---|---|
| 2026-05-06 17:30 | 50.04403 | 8.56222 | 362 ft | 0 kts | 159° |
| 2026-05-06 17:56 | 50.04411 | 8.56217 | 362 ft | 4 kts | 160° |
| 2026-05-06 17:56 | 50.04437 | 8.56205 | 361 ft | 4 kts | 169° |
| 2026-05-06 17:56 | 50.04462 | 8.56202 | 359 ft | 4 kts | 198° |
| 2026-05-06 17:57 | 50.04477 | 8.56217 | 363 ft | 1 kts | 250° |
| 2026-05-06 17:57 | 50.04468 | 8.56182 | 362 ft | 4 kts | 250° |
| 2026-05-06 17:57 | 50.04459 | 8.56142 | 356 ft | 4 kts | 250° |
| 2026-05-06 17:57 | 50.04453 | 8.56118 | 363 ft | 0 kts | 249° |
| 2026-05-06 18:00 | 50.04431 | 8.56056 | 365 ft | 13 kts | 226° |
| 2026-05-06 18:00 | 50.04333 | 8.56063 | 360 ft | 15 kts | 162° |
| 2026-05-06 18:01 | 50.04252 | 8.55996 | 359 ft | 18 kts | 249° |
| 2026-05-06 18:01 | 50.04199 | 8.55772 | 353 ft | 25 kts | 250° |
| 2026-05-06 18:01 | 50.04136 | 8.55509 | 358 ft | 26 kts | 249° |
| 2026-05-06 18:01 | 50.04074 | 8.55248 | 357 ft | 25 kts | 249° |
| 2026-05-06 18:02 | 50.04012 | 8.54991 | 354 ft | 26 kts | 250° |
| 2026-05-06 18:02 | 50.03948 | 8.54724 | 357 ft | 27 kts | 250° |
| 2026-05-06 18:02 | 50.03881 | 8.54443 | 347 ft | 28 kts | 249° |
| 2026-05-06 18:02 | 50.03786 | 8.54171 | 350 ft | 29 kts | 248° |
| 2026-05-06 18:03 | 50.03716 | 8.53875 | 352 ft | 29 kts | 250° |
| 2026-05-06 18:03 | 50.03646 | 8.53591 | 347 ft | 27 kts | 249° |
| 2026-05-06 18:03 | 50.03582 | 8.53332 | 337 ft | 25 kts | 249° |
| 2026-05-06 18:03 | 50.03520 | 8.53072 | 333 ft | 24 kts | 249° |
| 2026-05-06 18:04 | 50.03457 | 8.52822 | 332 ft | 25 kts | 248° |
| 2026-05-06 18:04 | 50.03365 | 8.52600 | 334 ft | 25 kts | 195° |
| 2026-05-06 18:04 | 50.03316 | 8.52594 | 335 ft | 0 kts | 178° |
| 2026-05-06 18:05 | 50.03308 | 8.52595 | 335 ft | 9 kts | 178° |
| 2026-05-06 18:05 | 50.02972 | 8.52596 | 335 ft | 85 kts | 179° |
| 2026-05-06 18:05 | 50.02174 | 8.52604 | 332 ft | 142 kts | 180° |
| 2026-05-06 18:05 | 50.01034 | 8.52614 | 401 ft | 179 kts | 184° |
| 2026-05-06 18:06 | 49.99809 | 8.52648 | 1091 ft | 177 kts | 181° |
| 2026-05-06 18:06 | 49.98570 | 8.52727 | 1754 ft | 181 kts | 179° |
| 2026-05-06 18:06 | 49.97245 | 8.52819 | 2104 ft | 201 kts | 180° |
| 2026-05-06 18:06 | 49.95761 | 8.52919 | 2415 ft | 226 kts | 179° |
| 2026-05-06 18:07 | 49.94157 | 8.53029 | 3151 ft | 232 kts | 180° |
| 2026-05-06 18:07 | 49.92549 | 8.53143 | 4091 ft | 231 kts | 180° |
| 2026-05-06 18:07 | 49.90942 | 8.53254 | 4995 ft | 231 kts | 181° |
| 2026-05-06 18:07 | 49.89327 | 8.53363 | 5839 ft | 233 kts | 181° |
| 2026-05-06 18:08 | 49.87702 | 8.53406 | 6653 ft | 234 kts | 188° |
| 2026-05-06 18:08 | 49.86095 | 8.52826 | 7182 ft | 247 kts | 202° |
| 2026-05-06 18:08 | 49.84413 | 8.51874 | 7620 ft | 265 kts | 202° |
| 2026-05-06 18:08 | 49.82662 | 8.50873 | 8374 ft | 271 kts | 202° |
| 2026-05-06 18:09 | 49.80879 | 8.49853 | 9196 ft | 275 kts | 202° |
| 2026-05-06 18:09 | 49.79075 | 8.48802 | 9979 ft | 279 kts | 206° |
| 2026-05-06 18:09 | 49.77431 | 8.47102 | 10336 ft | 296 kts | 227° |
| 2026-05-06 18:09 | 49.76318 | 8.44320 | 10623 ft | 315 kts | 252° |
| 2026-05-06 18:10 | 49.75938 | 8.40991 | 11226 ft | 322 kts | 263° |
| 2026-05-06 18:10 | 49.75675 | 8.37494 | 11950 ft | 327 kts | 262° |
| 2026-05-06 18:10 | 49.75409 | 8.33973 | 12691 ft | 330 kts | 262° |
| 2026-05-06 18:10 | 49.75139 | 8.30424 | 13383 ft | 335 kts | 262° |
| 2026-05-06 18:11 | 49.74863 | 8.26833 | 14013 ft | 339 kts | 262° |
| 2026-05-06 18:11 | 49.74584 | 8.23240 | 14584 ft | 344 kts | 262° |
| 2026-05-06 18:11 | 49.74298 | 8.19558 | 15240 ft | 346 kts | 262° |
| 2026-05-06 18:11 | 49.74012 | 8.15849 | 15860 ft | 349 kts | 262° |
| 2026-05-06 18:12 | 49.73722 | 8.12117 | 16516 ft | 351 kts | 262° |
| 2026-05-06 18:12 | 49.73427 | 8.08342 | 17098 ft | 355 kts | 262° |
| 2026-05-06 18:12 | 49.73128 | 8.04529 | 17703 ft | 359 kts | 262° |
| 2026-05-06 18:12 | 49.72826 | 8.00680 | 18263 ft | 363 kts | 262° |
| 2026-05-06 18:13 | 49.72521 | 7.96793 | 18793 ft | 366 kts | 262° |
| 2026-05-06 18:13 | 49.72211 | 7.92884 | 19359 ft | 367 kts | 262° |
| 2026-05-06 18:13 | 49.71890 | 7.88893 | 19849 ft | 371 kts | 262° |
| 2026-05-06 18:13 | 49.71572 | 7.84969 | 20328 ft | 375 kts | 262° |
| 2026-05-06 18:14 | 49.71246 | 7.80960 | 20848 ft | 377 kts | 262° |
| 2026-05-06 18:14 | 49.70919 | 7.76918 | 21350 ft | 380 kts | 262° |
| 2026-05-06 18:14 | 49.70587 | 7.72841 | 21738 ft | 386 kts | 262° |
| 2026-05-06 18:14 | 49.70250 | 7.68697 | 22160 ft | 390 kts | 261° |
| 2026-05-06 18:15 | 49.69910 | 7.64522 | 22652 ft | 393 kts | 262° |
| 2026-05-06 18:15 | 49.69566 | 7.60328 | 23178 ft | 394 kts | 262° |
| 2026-05-06 18:15 | 49.69217 | 7.56117 | 23621 ft | 396 kts | 262° |
| 2026-05-06 18:15 | 49.68862 | 7.51875 | 23993 ft | 400 kts | 262° |
| 2026-05-06 18:16 | 49.68501 | 7.47610 | 24361 ft | 402 kts | 262° |
| 2026-05-06 18:16 | 49.68139 | 7.43310 | 24724 ft | 405 kts | 262° |
| 2026-05-06 18:16 | 49.67776 | 7.38975 | 25094 ft | 408 kts | 261° |
| 2026-05-06 18:16 | 49.67410 | 7.34621 | 25461 ft | 411 kts | 261° |
| 2026-05-06 18:17 | 49.67039 | 7.30240 | 25820 ft | 413 kts | 261° |
| 2026-05-06 18:17 | 49.66664 | 7.25830 | 26180 ft | 416 kts | 261° |
| 2026-05-06 18:17 | 49.66284 | 7.21396 | 26548 ft | 418 kts | 261° |
| 2026-05-06 18:17 | 49.65898 | 7.16950 | 26981 ft | 418 kts | 261° |
| 2026-05-06 18:18 | 49.65510 | 7.12493 | 27368 ft | 419 kts | 261° |
| 2026-05-06 18:18 | 49.65121 | 7.08019 | 27720 ft | 422 kts | 261° |
| 2026-05-06 18:18 | 49.64729 | 7.03523 | 28063 ft | 424 kts | 261° |
| 2026-05-06 18:18 | 49.64332 | 6.99006 | 28399 ft | 426 kts | 261° |
| 2026-05-06 18:19 | 49.63929 | 6.94460 | 28739 ft | 428 kts | 260° |
| 2026-05-06 18:19 | 49.63523 | 6.89900 | 29071 ft | 431 kts | 260° |
| 2026-05-06 18:19 | 49.63251 | 6.86862 | 29296 ft | 432 kts | 260° |
| 2026-05-06 18:19 | 49.62702 | 6.80702 | 29718 ft | 435 kts | 260° |
| 2026-05-06 18:20 | 49.62429 | 6.77634 | 29908 ft | 436 kts | 260° |
| 2026-05-06 18:20 | 49.62013 | 6.72994 | 30197 ft | 438 kts | 260° |
| 2026-05-06 18:20 | 49.61589 | 6.68340 | 30490 ft | 438 kts | 260° |
| 2026-05-06 18:20 | 49.61163 | 6.63680 | 30760 ft | 440 kts | 260° |
| 2026-05-06 18:21 | 49.60734 | 6.59002 | 31017 ft | 441 kts | 260° |
| 2026-05-06 18:21 | 49.60306 | 6.54328 | 31377 ft | 440 kts | 260° |
| 2026-05-06 18:21 | 49.59875 | 6.49656 | 31740 ft | 439 kts | 260° |
| 2026-05-06 18:21 | 49.59445 | 6.45005 | 32100 ft | 438 kts | 260° |
| 2026-05-06 18:22 | 49.59013 | 6.40357 | 32449 ft | 438 kts | 260° |
| 2026-05-06 18:22 | 49.58578 | 6.35713 | 32795 ft | 437 kts | 259° |
| 2026-05-06 18:22 | 49.58142 | 6.31088 | 33137 ft | 436 kts | 259° |
| 2026-05-06 18:22 | 49.57704 | 6.26461 | 33494 ft | 436 kts | 260° |
| 2026-05-06 18:23 | 49.57267 | 6.21843 | 33802 ft | 436 kts | 260° |
| 2026-05-06 18:23 | 49.56826 | 6.17221 | 34073 ft | 436 kts | 260° |
| 2026-05-06 18:23 | 49.56383 | 6.12609 | 34342 ft | 436 kts | 260° |
| 2026-05-06 18:23 | 49.55939 | 6.07989 | 34604 ft | 435 kts | 260° |
| 2026-05-06 18:24 | 49.55497 | 6.03378 | 34861 ft | 435 kts | 260° |
| 2026-05-06 18:24 | 49.55051 | 5.98780 | 35110 ft | 434 kts | 260° |
| 2026-05-06 18:24 | 49.54600 | 5.94180 | 35355 ft | 434 kts | 260° |
| 2026-05-06 18:24 | 49.54156 | 5.89647 | 35588 ft | 434 kts | 260° |
| 2026-05-06 18:25 | 49.53707 | 5.85058 | 35825 ft | 433 kts | 260° |
| 2026-05-06 18:25 | 49.53258 | 5.80475 | 36046 ft | 433 kts | 260° |
| 2026-05-06 18:25 | 49.52808 | 5.75889 | 36251 ft | 434 kts | 260° |
| 2026-05-06 18:25 | 49.52347 | 5.71241 | 36465 ft | 434 kts | 260° |
| 2026-05-06 18:26 | 49.51889 | 5.66657 | 36686 ft | 433 kts | 260° |
| 2026-05-06 18:26 | 49.51432 | 5.62137 | 36847 ft | 434 kts | 260° |
| 2026-05-06 18:26 | 49.50508 | 5.52996 | 36884 ft | 431 kts | 260° |
| 2026-05-06 18:27 | 49.49588 | 5.43891 | 36887 ft | 430 kts | 260° |
| 2026-05-06 18:27 | 49.48658 | 5.34800 | 36897 ft | 430 kts | 260° |
| 2026-05-06 18:28 | 49.47714 | 5.25714 | 36893 ft | 430 kts | 260° |
| 2026-05-06 18:28 | 49.46769 | 5.16628 | 36900 ft | 430 kts | 260° |
| 2026-05-06 18:29 | 49.45814 | 5.07543 | 36903 ft | 431 kts | 259° |
| 2026-05-06 18:29 | 49.44848 | 4.98455 | 36908 ft | 430 kts | 259° |
| 2026-05-06 18:30 | 49.43882 | 4.89378 | 36914 ft | 431 kts | 260° |
| 2026-05-06 18:30 | 49.42909 | 4.80299 | 36915 ft | 431 kts | 259° |
| 2026-05-06 18:31 | 49.41928 | 4.71216 | 36912 ft | 431 kts | 260° |
| 2026-05-06 18:31 | 49.40943 | 4.62132 | 36918 ft | 431 kts | 259° |
| 2026-05-06 18:32 | 49.39946 | 4.53052 | 36916 ft | 431 kts | 259° |
| 2026-05-06 18:32 | 49.38933 | 4.43980 | 36928 ft | 431 kts | 259° |
| 2026-05-06 18:33 | 49.37917 | 4.34899 | 36924 ft | 432 kts | 259° |
| 2026-05-06 18:33 | 49.36896 | 4.25827 | 36923 ft | 432 kts | 259° |
| 2026-05-06 18:34 | 49.35873 | 4.16745 | 36926 ft | 432 kts | 259° |
| 2026-05-06 18:34 | 49.34838 | 4.07674 | 36927 ft | 432 kts | 259° |
| 2026-05-06 18:35 | 49.33796 | 3.98605 | 36928 ft | 432 kts | 259° |
| 2026-05-06 18:35 | 49.32750 | 3.89601 | 36928 ft | 432 kts | 259° |
| 2026-05-06 18:36 | 49.31695 | 3.80538 | 36934 ft | 432 kts | 259° |
| 2026-05-06 18:36 | 49.30642 | 3.71475 | 36936 ft | 432 kts | 259° |
| 2026-05-06 18:37 | 49.29576 | 3.62420 | 36936 ft | 432 kts | 259° |
| 2026-05-06 18:37 | 49.28498 | 3.53368 | 36940 ft | 432 kts | 259° |
| 2026-05-06 18:38 | 49.27402 | 3.44320 | 36940 ft | 432 kts | 259° |
| 2026-05-06 18:38 | 49.26309 | 3.35275 | 36946 ft | 432 kts | 259° |
| 2026-05-06 18:39 | 49.25217 | 3.26239 | 36941 ft | 432 kts | 259° |
| 2026-05-06 18:40 | 49.23556 | 3.12686 | 36941 ft | 432 kts | 259° |
| 2026-05-06 18:40 | 49.22438 | 3.03654 | 36944 ft | 432 kts | 259° |
| 2026-05-06 18:41 | 49.21310 | 2.94629 | 36949 ft | 432 kts | 259° |
| 2026-05-06 18:41 | 49.20182 | 2.85601 | 36949 ft | 432 kts | 259° |
| 2026-05-06 18:42 | 49.19049 | 2.76577 | 36952 ft | 432 kts | 259° |
| 2026-05-06 18:42 | 49.17905 | 2.67560 | 36953 ft | 432 kts | 258° |
| 2026-05-06 18:43 | 49.16755 | 2.58611 | 36959 ft | 432 kts | 259° |
| 2026-05-06 18:43 | 49.15602 | 2.49618 | 36963 ft | 431 kts | 259° |
| 2026-05-06 18:44 | 49.14438 | 2.40637 | 36965 ft | 431 kts | 259° |
| 2026-05-06 18:44 | 49.13276 | 2.31664 | 36983 ft | 431 kts | 259° |
| 2026-05-06 18:45 | 49.12114 | 2.22694 | 36984 ft | 431 kts | 259° |
| 2026-05-06 18:45 | 49.10941 | 2.13737 | 36988 ft | 430 kts | 259° |
| 2026-05-06 18:46 | 49.09718 | 2.04805 | 36985 ft | 430 kts | 254° |
| 2026-05-06 18:46 | 49.07450 | 1.96377 | 36982 ft | 430 kts | 246° |
| 2026-05-06 18:47 | 49.04951 | 1.88085 | 36980 ft | 430 kts | 246° |
| 2026-05-06 18:47 | 49.02458 | 1.79801 | 36969 ft | 430 kts | 246° |
| 2026-05-06 18:48 | 48.99952 | 1.71524 | 36976 ft | 430 kts | 246° |
| 2026-05-06 18:48 | 48.97456 | 1.63304 | 36973 ft | 431 kts | 246° |
| 2026-05-06 18:49 | 48.94933 | 1.55032 | 36974 ft | 431 kts | 246° |
| 2026-05-06 18:49 | 48.92402 | 1.46762 | 36976 ft | 431 kts | 245° |
| 2026-05-06 18:50 | 48.89865 | 1.38492 | 36974 ft | 432 kts | 246° |
| 2026-05-06 18:50 | 48.87320 | 1.30235 | 36978 ft | 432 kts | 245° |
| 2026-05-06 18:51 | 48.84768 | 1.21974 | 36982 ft | 432 kts | 245° |
| 2026-05-06 18:51 | 48.82217 | 1.13730 | 36984 ft | 432 kts | 246° |
| 2026-05-06 18:52 | 48.79657 | 1.05487 | 36984 ft | 432 kts | 245° |
| 2026-05-06 18:52 | 48.77088 | 0.97267 | 36988 ft | 432 kts | 245° |
| 2026-05-06 18:53 | 48.74496 | 0.89058 | 36991 ft | 432 kts | 242° |
| 2026-05-06 18:53 | 48.71385 | 0.81270 | 36987 ft | 432 kts | 239° |
| 2026-05-06 18:54 | 48.68241 | 0.73518 | 36993 ft | 432 kts | 239° |
| 2026-05-06 18:54 | 48.65095 | 0.65762 | 36992 ft | 432 kts | 239° |
| 2026-05-06 18:55 | 48.61941 | 0.58020 | 36987 ft | 433 kts | 239° |
| 2026-05-06 18:55 | 48.58802 | 0.50333 | 36991 ft | 433 kts | 239° |
| 2026-05-06 18:56 | 48.55641 | 0.42601 | 36986 ft | 433 kts | 239° |
| 2026-05-06 18:56 | 48.52468 | 0.34880 | 36988 ft | 433 kts | 239° |
| 2026-05-06 18:57 | 48.49289 | 0.27164 | 36990 ft | 433 kts | 239° |
| 2026-05-06 18:57 | 48.46104 | 0.19457 | 36991 ft | 433 kts | 239° |
| 2026-05-06 18:58 | 48.42914 | 0.11764 | 36997 ft | 433 kts | 239° |
| 2026-05-06 18:58 | 48.39719 | 0.04075 | 37000 ft | 433 kts | 239° |
| 2026-05-06 18:59 | 48.36514 | -0.03595 | 36999 ft | 433 kts | 238° |
| 2026-05-06 18:59 | 48.33083 | -0.11054 | 37000 ft | 434 kts | 234° |
| 2026-05-06 19:00 | 48.29418 | -0.18260 | 37001 ft | 434 kts | 233° |
| 2026-05-06 19:00 | 48.25739 | -0.25445 | 37003 ft | 434 kts | 234° |
| 2026-05-06 19:01 | 48.22079 | -0.32647 | 36997 ft | 434 kts | 234° |
| 2026-05-06 19:01 | 48.18407 | -0.39831 | 36992 ft | 434 kts | 234° |
| 2026-05-06 19:02 | 48.14734 | -0.47004 | 36988 ft | 434 kts | 233° |
| 2026-05-06 19:02 | 48.11056 | -0.54166 | 36988 ft | 434 kts | 233° |
| 2026-05-06 19:03 | 48.07374 | -0.61316 | 36980 ft | 434 kts | 233° |
| 2026-05-06 19:03 | 48.03713 | -0.68414 | 36986 ft | 434 kts | 233° |
| 2026-05-06 19:04 | 48.00022 | -0.75549 | 36974 ft | 434 kts | 233° |
| 2026-05-06 19:04 | 47.96325 | -0.82667 | 36980 ft | 434 kts | 233° |
| 2026-05-06 19:05 | 47.92629 | -0.89778 | 36978 ft | 434 kts | 233° |
| 2026-05-06 19:05 | 47.88927 | -0.96884 | 36999 ft | 434 kts | 233° |
| 2026-05-06 19:06 | 47.85217 | -1.03971 | 36994 ft | 434 kts | 233° |
| 2026-05-06 19:06 | 47.81505 | -1.11050 | 37001 ft | 434 kts | 233° |
| 2026-05-06 19:07 | 47.77786 | -1.18118 | 36998 ft | 434 kts | 233° |
| 2026-05-06 19:07 | 47.74068 | -1.25181 | 36997 ft | 434 kts | 233° |
| 2026-05-06 19:08 | 47.70344 | -1.32227 | 36993 ft | 433 kts | 233° |
| 2026-05-06 19:08 | 47.67247 | -1.38074 | 36999 ft | 433 kts | 233° |
| 2026-05-06 19:09 | 47.63518 | -1.45089 | 37003 ft | 433 kts | 233° |
| 2026-05-06 19:09 | 47.59781 | -1.52089 | 37006 ft | 433 kts | 232° |
| 2026-05-06 19:10 | 47.55846 | -1.58855 | 36991 ft | 434 kts | 229° |
| 2026-05-06 19:10 | 47.51753 | -1.65407 | 36996 ft | 434 kts | 229° |
| 2026-05-06 19:11 | 47.47663 | -1.71968 | 36990 ft | 433 kts | 229° |
| 2026-05-06 19:11 | 47.43629 | -1.78579 | 36994 ft | 433 kts | 230° |
| 2026-05-06 19:12 | 47.39608 | -1.85197 | 36995 ft | 433 kts | 229° |
| 2026-05-06 19:12 | 47.35514 | -1.91712 | 36983 ft | 434 kts | 224° |
| 2026-05-06 19:13 | 47.30553 | -1.96788 | 36981 ft | 436 kts | 213° |
| 2026-05-06 19:13 | 47.25365 | -2.01406 | 36979 ft | 436 kts | 213° |
| 2026-05-06 19:14 | 47.20182 | -2.06034 | 36979 ft | 436 kts | 213° |
| 2026-05-06 19:14 | 47.15038 | -2.10621 | 36979 ft | 436 kts | 213° |
| 2026-05-06 19:15 | 47.09851 | -2.15230 | 36988 ft | 435 kts | 213° |
| 2026-05-06 19:15 | 47.04702 | -2.19800 | 36991 ft | 435 kts | 213° |
| 2026-05-06 19:16 | 46.99766 | -2.24171 | 36995 ft | 435 kts | 213° |
| 2026-05-06 19:16 | 46.94576 | -2.28744 | 36997 ft | 435 kts | 213° |
| 2026-05-06 19:17 | 46.89424 | -2.33280 | 36995 ft | 435 kts | 213° |
| 2026-05-06 19:17 | 46.84603 | -2.37522 | 36996 ft | 436 kts | 213° |
| 2026-05-06 19:18 | 46.79817 | -2.41727 | 36998 ft | 436 kts | 213° |
| 2026-05-06 19:18 | 46.76282 | -2.44831 | 37008 ft | 436 kts | 213° |
| 2026-05-06 19:19 | 46.71712 | -2.48832 | 37021 ft | 435 kts | 212° |
| 2026-05-06 19:19 | 46.67526 | -2.52489 | 37016 ft | 435 kts | 212° |
| 2026-05-06 19:20 | 46.62898 | -2.56527 | 37015 ft | 434 kts | 212° |
| 2026-05-06 19:20 | 46.58516 | -2.60339 | 37013 ft | 434 kts | 212° |
| 2026-05-06 19:21 | 46.54427 | -2.63884 | 37018 ft | 434 kts | 212° |
| 2026-05-06 19:21 | 46.49435 | -2.68211 | 37005 ft | 434 kts | 212° |
| 2026-05-06 19:22 | 46.44453 | -2.72524 | 37006 ft | 434 kts | 212° |
| 2026-05-06 19:22 | 46.39808 | -2.76529 | 37015 ft | 434 kts | 212° |
| 2026-05-06 19:23 | 46.35092 | -2.80591 | 37012 ft | 434 kts | 212° |
| 2026-05-06 19:23 | 46.30186 | -2.84810 | 37015 ft | 434 kts | 212° |
| 2026-05-06 19:24 | 46.25460 | -2.89280 | 37018 ft | 431 kts | 222° |
| 2026-05-06 19:24 | 46.20967 | -2.94789 | 37019 ft | 431 kts | 222° |
| 2026-05-06 19:25 | 46.16544 | -3.00186 | 37016 ft | 431 kts | 222° |
| 2026-05-06 19:25 | 46.12038 | -3.05685 | 37008 ft | 430 kts | 222° |
| 2026-05-06 19:26 | 46.07479 | -3.11230 | 37016 ft | 430 kts | 222° |
| 2026-05-06 19:26 | 46.02936 | -3.16738 | 37014 ft | 430 kts | 221° |
| 2026-05-06 19:27 | 45.98395 | -3.22217 | 37022 ft | 430 kts | 221° |
| 2026-05-06 19:27 | 45.93863 | -3.27686 | 37025 ft | 430 kts | 221° |
| 2026-05-06 19:28 | 45.89379 | -3.33096 | 37028 ft | 430 kts | 221° |
| 2026-05-06 19:28 | 45.84836 | -3.38559 | 37026 ft | 429 kts | 221° |
| 2026-05-06 19:29 | 45.80295 | -3.44006 | 37027 ft | 429 kts | 221° |
| 2026-05-06 19:29 | 45.75764 | -3.49427 | 37030 ft | 429 kts | 221° |
| 2026-05-06 19:30 | 45.71238 | -3.54817 | 37024 ft | 429 kts | 221° |
| 2026-05-06 19:30 | 45.67127 | -3.59725 | 37031 ft | 429 kts | 221° |
| 2026-05-06 19:31 | 45.62561 | -3.65155 | 37034 ft | 428 kts | 221° |
| 2026-05-06 19:31 | 45.55680 | -3.73309 | 37037 ft | 428 kts | 221° |
| 2026-05-06 19:32 | 45.51092 | -3.78724 | 37029 ft | 428 kts | 221° |
| 2026-05-06 19:32 | 45.46534 | -3.84100 | 37035 ft | 428 kts | 221° |
| 2026-05-06 19:33 | 45.41951 | -3.89496 | 37039 ft | 428 kts | 221° |
| 2026-05-06 19:33 | 45.37364 | -3.94896 | 37037 ft | 428 kts | 221° |
| 2026-05-06 19:34 | 45.32777 | -4.00281 | 37035 ft | 428 kts | 221° |
| 2026-05-06 19:34 | 45.28184 | -4.05650 | 37027 ft | 427 kts | 221° |